Time;durP1;ratioP1;P1;durP2;ratioP2;P2;SDS_P1;SDS_P2;PMS_P1;PMS_P2;Temp;Humidity;BMP_temperature;BMP_pressure;BME280_temperature;BME280_humidity;BME280_pressure;Samples;Min_cycle;Max_cycle;Signal;HPM_P1;HPM_P2
2022/08/18 00:01:15;;;;;;;10.90;4.53;;;26.50;77.90;;;;;;6126913;23;20240;-75
2022/08/18 00:03:43;;;;;;;9.77;4.55;;;26.50;77.80;;;;;;6126699;23;20013;-69
2022/08/18 00:06:09;;;;;;;9.15;4.53;;;26.50;77.60;;;;;;6126678;23;20002;-73
2022/08/18 00:08:34;;;;;;;9.52;4.80;;;26.40;77.50;;;;;;6126891;23;20016;-69
2022/08/18 00:11:00;;;;;;;12.40;4.88;;;26.40;77.50;;;;;;6126343;23;20053;-68
2022/08/18 00:13:26;;;;;;;13.10;4.68;;;26.30;77.50;;;;;;6126610;23;20431;-70
2022/08/18 00:15:52;;;;;;;16.52;4.78;;;26.30;77.30;;;;;;6126599;23;20413;-71
2022/08/18 00:18:18;;;;;;;14.88;4.38;;;26.30;77.20;;;;;;6126857;23;20013;-69
2022/08/18 00:20:44;;;;;;;15.13;4.63;;;26.30;77.30;;;;;;6126532;23;20006;-72
2022/08/18 00:23:10;;;;;;;12.65;4.60;;;26.20;77.40;;;;;;6126493;23;20013;-74
2022/08/18 00:25:36;;;;;;;9.50;4.75;;;26.20;77.50;;;;;;6126189;23;20018;-67
2022/08/18 00:28:02;;;;;;;10.05;4.65;;;26.20;77.60;;;;;;6126420;23;20009;-74
2022/08/18 00:30:28;;;;;;;12.27;4.40;;;26.10;77.60;;;;;;6126813;23;20006;-73
2022/08/18 00:32:56;;;;;;;8.95;4.70;;;26.10;77.60;;;;;;6126479;23;20052;-75
2022/08/18 00:35:26;;;;;;;11.00;4.78;;;26.10;77.40;;;;;;6126715;23;20018;-72
2022/08/18 00:37:53;;;;;;;8.85;4.25;;;26.10;77.50;;;;;;6125837;23;20013;-68
2022/08/18 00:40:23;;;;;;;10.48;4.95;;;26.10;77.50;;;;;;6125929;23;20041;-73
2022/08/18 00:42:54;;;;;;;9.85;4.22;;;26.10;77.40;;;;;;6126205;23;20002;-74
2022/08/18 00:45:24;;;;;;;13.90;4.95;;;26.10;77.50;;;;;;6126104;23;20366;-74
2022/08/18 00:47:50;;;;;;;10.85;4.80;;;26.10;77.60;;;;;;6126193;23;20021;-73
2022/08/18 00:50:38;;;;;;;8.23;4.60;;;26.10;77.70;;;;;;6125888;23;19998;-68
2022/08/18 00:53:29;;;;;;;10.57;4.97;;;26.00;77.70;;;;;;6126247;23;20426;-74
2022/08/18 00:56:00;;;;;;;9.57;4.85;;;26.00;77.80;;;;;;6126267;23;20089;-73
2022/08/18 00:58:39;;;;;;;10.32;4.70;;;26.00;78.10;;;;;;6124006;23;20060;-68
2022/08/18 01:01:09;;;;;;;9.02;5.07;;;25.90;78.20;;;;;;6122623;23;20017;-72
2022/08/18 01:03:38;;;;;;;12.27;4.80;;;25.90;78.70;;;;;;6122537;23;20006;-70
2022/08/18 01:06:40;;;;;;;8.82;4.90;;;25.90;78.90;;;;;;6125305;23;20095;-72
2022/08/18 01:09:07;;;;;;;8.40;5.47;;;25.90;79.00;;;;;;6120376;23;20037;-68
2022/08/18 01:11:36;;;;;;;16.48;5.70;;;25.90;79.00;;;;;;6125526;23;20455;-74
2022/08/18 01:14:05;;;;;;;13.85;5.50;;;25.80;78.90;;;;;;6125432;23;20021;-74
2022/08/18 01:22:12;;;;;;;10.93;5.10;;;25.80;79.10;;;;;;6126296;23;20017;-74
2022/08/18 01:27:25;;;;;;;12.38;5.35;;;25.80;79.50;;;;;;6125721;23;20028;-69
2022/08/18 01:29:51;;;;;;;14.55;5.25;;;25.70;78.90;;;;;;6125960;23;20381;-68
2022/08/18 01:32:21;;;;;;;13.73;5.78;;;25.80;79.00;;;;;;6125875;23;20005;-68
2022/08/18 01:34:49;;;;;;;15.02;4.95;;;25.70;79.00;;;;;;6125635;23;20009;-74
2022/08/18 01:37:16;;;;;;;9.00;4.82;;;25.70;78.50;;;;;;6125525;23;20002;-68
2022/08/18 01:39:44;;;;;;;12.93;4.47;;;25.70;77.90;;;;;;6125635;23;20437;-75
2022/08/18 01:42:11;;;;;;;12.93;4.53;;;25.70;77.50;;;;;;6125781;23;19998;-75
2022/08/18 01:44:40;;;;;;;8.48;4.13;;;25.70;77.00;;;;;;6126759;23;20072;-71
2022/08/18 01:47:07;;;;;;;9.18;3.97;;;25.60;76.30;;;;;;6128101;23;20020;-73
2022/08/18 01:49:33;;;;;;;9.02;4.40;;;25.60;75.60;;;;;;6128369;23;20010;-69
2022/08/18 01:51:59;;;;;;;8.63;3.92;;;25.60;75.10;;;;;;6127842;23;20006;-74
2022/08/18 01:54:28;;;;;;;11.52;4.10;;;25.50;74.90;;;;;;6127924;23;20025;-74
2022/08/18 01:56:54;;;;;;;11.75;3.97;;;25.50;74.90;;;;;;6127611;23;20034;-69
2022/08/18 01:59:20;;;;;;;10.02;4.25;;;25.40;74.90;;;;;;6128042;23;20333;-70
2022/08/18 02:01:46;;;;;;;12.25;4.90;;;25.40;75.00;;;;;;6127599;23;19998;-70
2022/08/18 02:04:14;;;;;;;12.45;4.45;;;25.40;75.10;;;;;;6127362;23;20429;-66
2022/08/18 02:06:40;;;;;;;11.20;4.25;;;25.40;75.10;;;;;;6127179;23;20013;-73
2022/08/18 02:09:06;;;;;;;13.32;4.93;;;25.40;75.10;;;;;;6127645;23;20541;-67
2022/08/18 02:11:32;;;;;;;9.63;3.90;;;25.40;75.10;;;;;;6127646;23;20008;-75
2022/08/18 02:13:57;;;;;;;8.98;3.80;;;25.40;74.60;;;;;;6127543;23;20014;-74
2022/08/18 02:16:23;;;;;;;13.68;4.10;;;25.40;74.30;;;;;;6127126;23;20030;-67
2022/08/18 02:18:49;;;;;;;10.45;4.20;;;25.40;74.20;;;;;;6127280;23;20441;-75
2022/08/18 02:21:17;;;;;;;9.10;4.15;;;25.40;74.30;;;;;;6127266;23;20002;-67
2022/08/18 02:23:44;;;;;;;11.07;4.28;;;25.40;74.30;;;;;;6127990;23;20081;-68
2022/08/18 02:26:13;;;;;;;11.60;4.18;;;25.30;74.10;;;;;;6127292;23;20044;-73
2022/08/18 02:28:39;;;;;;;10.90;4.32;;;25.30;74.10;;;;;;6127436;23;20422;-73
2022/08/18 02:31:09;;;;;;;13.68;5.10;;;25.30;74.10;;;;;;6127648;23;20012;-75
2022/08/18 02:33:35;;;;;;;11.85;4.35;;;25.30;74.00;;;;;;6127431;23;20025;-72
2022/08/18 02:36:01;;;;;;;10.18;4.30;;;25.30;73.90;;;;;;6127142;23;20002;-74
2022/08/18 02:38:29;;;;;;;13.60;4.25;;;25.20;73.80;;;;;;6127370;23;20025;-68
2022/08/18 02:40:59;;;;;;;15.00;4.85;;;25.20;73.70;;;;;;6127265;23;20038;-71
2022/08/18 02:43:27;;;;;;;11.63;4.05;;;25.20;73.80;;;;;;6127241;23;20014;-71
2022/08/18 02:45:53;;;;;;;11.90;4.05;;;25.20;73.90;;;;;;6127004;23;20017;-68
2022/08/18 02:48:34;;;;;;;10.32;4.15;;;25.20;73.90;;;;;;6127527;23;20005;-68
2022/08/18 02:51:20;;;;;;;10.18;4.60;;;25.20;74.00;;;;;;6127551;23;20006;-74
2022/08/18 02:53:46;;;;;;;9.93;4.13;;;25.20;73.60;;;;;;6126586;23;20089;-71
2022/08/18 02:56:23;;;;;;;10.73;4.43;;;25.20;73.70;;;;;;6126354;23;20064;-68
2022/08/18 02:58:54;;;;;;;11.10;4.28;;;25.10;73.60;;;;;;6127774;23;20006;-72
2022/08/18 03:01:29;;;;;;;11.05;4.28;;;25.20;73.80;;;;;;6127195;23;20440;-68
2022/08/18 03:03:56;;;;;;;10.80;4.55;;;25.10;73.80;;;;;;6127325;23;20053;-71
2022/08/18 03:06:22;;;;;;;12.70;4.43;;;25.10;73.90;;;;;;6126735;23;20425;-69
2022/08/18 03:08:49;;;;;;;11.30;3.97;;;25.10;74.00;;;;;;6127053;23;20433;-68
2022/08/18 03:11:16;;;;;;;11.18;4.72;;;25.00;73.80;;;;;;6127058;23;20069;-70
2022/08/18 03:13:43;;;;;;;10.45;4.28;;;25.00;73.80;;;;;;6126946;23;20022;-68
2022/08/18 03:16:09;;;;;;;12.05;4.40;;;24.90;73.80;;;;;;6126950;23;20006;-73
2022/08/18 03:18:35;;;;;;;16.00;5.13;;;24.90;73.70;;;;;;6126963;23;20033;-72
2022/08/18 03:21:13;;;;;;;15.50;4.70;;;24.90;73.60;;;;;;6126879;23;20084;-73
2022/08/18 03:23:39;;;;;;;15.25;4.72;;;24.80;73.60;;;;;;6126982;23;20013;-69
2022/08/18 03:26:10;;;;;;;9.30;4.13;;;24.80;73.70;;;;;;6126691;23;20022;-68
2022/08/18 03:28:41;;;;;;;14.18;4.88;;;24.80;73.70;;;;;;6126988;23;20492;-67
2022/08/18 03:31:08;;;;;;;15.47;4.63;;;24.80;73.80;;;;;;6127224;23;20021;-71
2022/08/18 03:33:34;;;;;;;14.30;4.53;;;24.80;74.00;;;;;;6126630;23;20017;-74
2022/08/18 03:36:10;;;;;;;12.05;5.10;;;24.80;74.20;;;;;;6126534;23;20133;-72
2022/08/18 03:38:37;;;;;;;14.05;4.70;;;24.80;74.10;;;;;;6126665;23;19998;-68
2022/08/18 03:41:05;;;;;;;10.85;4.53;;;24.80;74.10;;;;;;6126694;23;20038;-69
2022/08/18 03:43:30;;;;;;;9.43;4.22;;;24.80;74.20;;;;;;6126407;23;20002;-73
2022/08/18 03:46:01;;;;;;;13.85;4.75;;;24.80;74.20;;;;;;6126733;23;20320;-74
2022/08/18 03:48:27;;;;;;;7.60;4.13;;;24.80;73.60;;;;;;6126996;23;20006;-73
2022/08/18 03:50:53;;;;;;;10.40;3.70;;;24.70;73.10;;;;;;6126545;23;20089;-68
2022/08/18 03:53:19;;;;;;;7.97;4.05;;;24.70;73.10;;;;;;6127002;23;20025;-68
2022/08/18 03:55:44;;;;;;;12.70;4.32;;;24.70;73.20;;;;;;6126683;23;20033;-69
2022/08/18 03:58:13;;;;;;;8.40;3.75;;;24.70;73.30;;;;;;6126430;23;19997;-67
2022/08/18 04:00:40;;;;;;;9.75;3.58;;;24.60;73.10;;;;;;6126228;23;20030;-68
2022/08/18 04:03:05;;;;;;;9.93;4.13;;;24.60;73.20;;;;;;6126556;23;20006;-72
2022/08/18 04:05:34;;;;;;;12.85;4.07;;;24.60;73.30;;;;;;6126284;23;20381;-70
2022/08/18 04:08:01;;;;;;;11.70;3.95;;;24.60;73.20;;;;;;6126294;23;20036;-68
2022/08/18 04:10:27;;;;;;;19.33;4.20;;;24.60;73.10;;;;;;6126506;23;20010;-67
2022/08/18 04:12:53;;;;;;;11.05;3.83;;;24.60;73.00;;;;;;6126237;23;20010;-68
2022/08/18 04:15:18;;;;;;;7.45;3.80;;;24.60;73.10;;;;;;6126481;23;20440;-68
2022/08/18 04:17:45;;;;;;;12.95;4.47;;;24.60;73.10;;;;;;6126364;23;19994;-68
2022/08/18 04:20:11;;;;;;;11.25;4.05;;;24.70;73.00;;;;;;6126569;23;20333;-74
2022/08/18 04:22:38;;;;;;;12.30;4.32;;;24.70;73.10;;;;;;6126370;23;20001;-68
2022/08/18 04:25:04;;;;;;;10.50;3.92;;;24.70;73.00;;;;;;6126338;23;20333;-74
2022/08/18 04:27:29;;;;;;;10.73;3.60;;;24.70;73.00;;;;;;6126079;23;20017;-69
2022/08/18 04:29:55;;;;;;;10.82;4.32;;;24.60;72.90;;;;;;6126305;23;20345;-68
2022/08/18 04:32:22;;;;;;;15.98;4.03;;;24.60;73.10;;;;;;6126647;23;20057;-73
2022/08/18 04:34:48;;;;;;;12.15;4.72;;;24.70;73.30;;;;;;6126073;23;20022;-74
2022/08/18 04:37:15;;;;;;;15.98;5.43;;;24.60;73.40;;;;;;6126098;23;19998;-73
2022/08/18 04:39:41;;;;;;;16.25;4.72;;;24.60;73.90;;;;;;6126089;23;20037;-68
2022/08/18 04:42:07;;;;;;;12.32;5.10;;;24.60;74.60;;;;;;6126738;23;20085;-73
2022/08/18 04:44:36;;;;;;;14.18;4.63;;;24.60;75.10;;;;;;6126493;23;20010;-74
2022/08/18 04:47:02;;;;;;;10.93;4.47;;;24.60;75.20;;;;;;6126672;23;20017;-72
2022/08/18 04:49:30;;;;;;;9.60;5.38;;;24.60;75.50;;;;;;6126504;23;20009;-71
2022/08/18 04:54:42;;;;;;;11.68;4.53;;;24.50;76.00;;;;;;6125994;23;20460;-68
2022/08/18 04:57:09;;;;;;;7.50;4.32;;;24.60;76.10;;;;;;6125858;23;20002;-69
2022/08/18 04:59:35;;;;;;;10.18;5.35;;;24.60;76.10;;;;;;6125899;23;20013;-73
2022/08/18 05:02:06;;;;;;;8.80;4.43;;;24.60;76.20;;;;;;6126184;23;19998;-73
2022/08/18 05:04:33;;;;;;;9.60;4.45;;;24.60;76.20;;;;;;6126203;23;20006;-74
2022/08/18 05:06:59;;;;;;;11.52;4.45;;;24.60;75.90;;;;;;6125744;23;20010;-68
2022/08/18 05:09:25;;;;;;;12.60;4.25;;;24.60;75.60;;;;;;6126291;23;20006;-70
2022/08/18 05:11:51;;;;;;;14.25;5.15;;;24.60;75.20;;;;;;6126146;23;20056;-69
2022/08/18 05:14:17;;;;;;;14.02;5.22;;;24.70;74.80;;;;;;6125969;23;20014;-69
2022/08/18 05:16:44;;;;;;;16.70;4.70;;;24.70;75.30;;;;;;6125879;23;20077;-69
2022/08/18 05:19:10;;;;;;;15.18;5.20;;;24.70;75.50;;;;;;6126150;23;20330;-74
2022/08/18 05:21:40;;;;;;;11.00;4.57;;;24.80;75.60;;;;;;6125695;23;20013;-68
2022/08/18 05:24:07;;;;;;;9.20;4.70;;;24.80;75.80;;;;;;6126065;23;20021;-68
2022/08/18 05:26:32;;;;;;;13.00;5.38;;;24.80;75.80;;;;;;6125930;23;20018;-73
2022/08/18 05:28:58;;;;;;;11.40;4.70;;;24.90;75.70;;;;;;6125926;23;20340;-68
2022/08/18 05:31:26;;;;;;;12.18;4.82;;;24.90;75.70;;;;;;6125647;23;20002;-68
2022/08/18 05:33:56;;;;;;;16.45;5.32;;;25.00;75.40;;;;;;6126250;23;20018;-67
2022/08/18 05:36:42;;;;;;;12.50;5.20;;;25.00;75.40;;;;;;6126252;23;20425;-74
2022/08/18 05:39:22;;;;;;;14.98;5.35;;;25.00;76.10;;;;;;6125667;23;20076;-68
2022/08/18 05:41:52;;;;;;;10.02;4.63;;;24.90;75.80;;;;;;6125501;23;20417;-69
2022/08/18 05:44:28;;;;;;;12.57;5.00;;;24.90;76.10;;;;;;6125911;23;20332;-68
2022/08/18 05:47:03;;;;;;;17.67;5.05;;;25.00;76.90;;;;;;6126051;23;20452;-67
2022/08/18 05:49:30;;;;;;;12.65;4.57;;;25.00;76.50;;;;;;6126409;23;20017;-68
2022/08/18 05:52:04;;;;;;;13.65;5.25;;;24.90;76.60;;;;;;6126295;23;20089;-67
2022/08/18 05:57:24;;;;;;;13.65;4.20;;;25.00;76.80;;;;;;6125598;23;20017;-69
2022/08/18 05:59:52;;;;;;;11.68;4.20;;;25.10;75.60;;;;;;6125629;23;20381;-68
2022/08/18 06:02:37;;;;;;;10.13;3.97;;;25.10;75.00;;;;;;6125530;23;20370;-68
2022/08/18 06:05:10;;;;;;;9.43;3.75;;;25.10;74.80;;;;;;6125644;23;20037;-68
2022/08/18 06:07:48;;;;;;;12.90;4.22;;;25.10;74.50;;;;;;6125207;23;20006;-69
2022/08/18 06:10:15;;;;;;;12.73;3.95;;;25.20;74.20;;;;;;6124205;23;20073;-68
2022/08/18 06:12:42;;;;;;;10.35;3.60;;;25.20;73.60;;;;;;6126207;23;20021;-71
2022/08/18 06:15:14;;;;;;;8.02;4.18;;;25.20;73.30;;;;;;6125640;23;20002;-68
2022/08/18 06:17:57;;;;;;;;;;;25.30;73.20;;;;;;6125973;23;20327;-69
2022/08/18 06:20:27;;;;;;;;;;;25.30;72.90;;;;;;6125410;23;19939;-68
2022/08/18 06:23:06;;;;;;;15.05;4.60;;;25.40;72.80;;;;;;6124650;23;19901;-68
2022/08/18 06:25:41;;;;;;;16.67;4.18;;;25.40;72.20;;;;;;6124576;23;20014;-70
2022/08/18 06:28:12;;;;;;;10.68;3.85;;;25.50;72.10;;;;;;6125394;23;19998;-68
2022/08/18 06:30:43;;;;;;;;;;;25.50;72.10;;;;;;6126944;23;20006;-67
2022/08/18 06:33:50;;;;;;;8.63;4.05;;;25.50;71.80;;;;;;6127517;23;20240;-68
2022/08/18 06:36:22;;;;;;;10.90;4.13;;;25.60;71.80;;;;;;6088094;23;20425;-68
2022/08/18 06:39:18;;;;;;;15.68;3.80;;;25.60;71.70;;;;;;6127580;23;20002;-68
2022/08/18 06:41:48;;;;;;;13.70;3.80;;;25.70;71.50;;;;;;6127573;23;20052;-68
2022/08/18 06:44:41;;;;;;;9.25;3.40;;;25.70;71.50;;;;;;6127609;23;20005;-67
2022/08/18 06:47:19;;;;;;;12.70;3.78;;;25.80;71.40;;;;;;6127675;23;20013;-68
2022/08/18 06:50:08;;;;;;;9.75;4.10;;;25.80;71.40;;;;;;6127186;23;20002;-68
2022/08/18 06:52:39;;;;;;;12.43;4.00;;;25.90;71.20;;;;;;6126458;23;20093;-71
2022/08/18 06:55:29;;;;;;;11.57;4.00;;;26.00;71.10;;;;;;6128068;23;20009;-68
2022/08/18 06:58:18;;;;;;;12.20;3.90;;;26.10;71.00;;;;;;6127327;23;20072;-68
2022/08/18 07:01:01;;;;;;;12.05;3.88;;;26.10;70.90;;;;;;6125851;23;20045;-71
2022/08/18 07:03:41;;;;;;;12.65;3.80;;;26.20;70.80;;;;;;6126805;23;20064;-67
2022/08/18 07:06:09;;;;;;;10.45;3.97;;;26.30;70.80;;;;;;6127024;23;20002;-68
2022/08/18 07:08:44;;;;;;;7.78;3.40;;;26.30;70.50;;;;;;6127236;23;20022;-69
2022/08/18 07:11:13;;;;;;;8.77;3.63;;;26.40;70.40;;;;;;6126962;23;20482;-68
2022/08/18 07:13:41;;;;;;;11.70;4.38;;;26.40;70.20;;;;;;6127011;23;20061;-68
2022/08/18 07:16:23;;;;;;;9.75;4.30;;;26.40;70.10;;;;;;6126994;23;20010;-67
2022/08/18 07:18:50;;;;;;;11.15;4.50;;;26.40;70.10;;;;;;6126802;23;20426;-67
2022/08/18 07:21:31;;;;;;;12.23;3.85;;;26.50;69.90;;;;;;6126846;23;20010;-67
2022/08/18 07:24:11;;;;;;;10.00;3.63;;;26.50;69.30;;;;;;6126990;23;20429;-68
2022/08/18 07:26:56;;;;;;;10.98;4.07;;;26.60;69.20;;;;;;6126634;23;20026;-69
2022/08/18 07:29:21;;;;;;;14.32;3.55;;;26.60;68.40;;;;;;6126978;23;20036;-67
2022/08/18 07:31:53;;;;;;;16.95;4.45;;;26.70;68.10;;;;;;6126944;23;19998;-71
2022/08/18 07:34:26;;;;;;;11.77;3.83;;;26.70;67.80;;;;;;6127472;23;20022;-67
2022/08/18 07:36:59;;;;;;;15.95;4.10;;;26.80;67.50;;;;;;6126676;23;20008;-68
2022/08/18 07:39:32;;;;;;;10.52;3.35;;;26.80;67.50;;;;;;6126920;23;20009;-68
2022/08/18 07:42:22;;;;;;;8.07;3.60;;;26.80;67.30;;;;;;6126719;23;20029;-67
2022/08/18 07:45:00;;;;;;;9.18;3.78;;;26.90;66.80;;;;;;6127066;23;20306;-69
2022/08/18 07:47:44;;;;;;;12.00;3.63;;;27.00;67.20;;;;;;6126791;23;20340;-68
2022/08/18 07:50:10;;;;;;;8.35;3.30;;;27.00;67.30;;;;;;6126572;23;20002;-68
2022/08/18 07:52:50;;;;;;;10.70;3.78;;;27.10;66.90;;;;;;6126706;23;20010;-67
2022/08/18 07:55:30;;;;;;;11.27;3.60;;;27.10;66.90;;;;;;6126720;23;20013;-68
2022/08/18 07:58:22;;;;;;;10.32;4.05;;;27.20;66.50;;;;;;6126928;23;20009;-68
2022/08/18 08:00:53;;;;;;;;;;;27.20;66.10;;;;;;6127695;23;20037;-68
2022/08/18 08:03:55;;;;;;;14.05;4.32;;;27.30;66.00;;;;;;6126805;23;19908;-67
2022/08/18 08:06:27;;;;;;;;;;;27.40;66.10;;;;;;6127070;23;20002;-68
2022/08/18 08:09:08;;;;;;;13.50;4.15;;;27.40;65.30;;;;;;6126852;23;19905;-70
2022/08/18 08:11:53;;;;;;;10.23;3.72;;;27.40;65.30;;;;;;6126221;23;20008;-68
2022/08/18 08:14:21;;;;;;;12.95;3.55;;;27.50;65.40;;;;;;6126282;23;20018;-68
2022/08/18 08:16:49;;;;;;;10.50;3.97;;;27.50;65.30;;;;;;6126820;23;19998;-68
2022/08/18 08:19:45;;;;;;;11.00;3.40;;;27.50;64.90;;;;;;6125527;23;20006;-67
2022/08/18 08:22:37;;;;;;;15.43;4.35;;;27.60;64.60;;;;;;6127017;23;19998;-67
2022/08/18 08:25:19;;;;;;;11.90;3.45;;;27.60;64.40;;;;;;6125853;23;20005;-68
2022/08/18 08:27:51;;;;;;;14.32;4.35;;;27.70;64.00;;;;;;6126505;23;20018;-68
2022/08/18 08:30:20;;;;;;;16.15;4.50;;;27.80;63.70;;;;;;6125225;23;19998;-69
2022/08/18 08:32:45;;;;;;;11.13;3.70;;;27.80;63.90;;;;;;6125970;23;20030;-67
2022/08/18 08:35:14;;;;;;;10.73;3.38;;;;;;;;;;6126369;23;20410;-69
2022/08/18 08:37:49;;;;;;;9.50;3.50;;;27.90;62.20;;;;;;6126459;23;20085;-67
2022/08/18 08:40:41;;;;;;;11.65;3.90;;;28.00;62.20;;;;;;6126326;23;20002;-70
2022/08/18 08:43:12;;;;;;;12.77;3.65;;;28.10;62.10;;;;;;6126221;23;20010;-68
2022/08/18 08:46:00;;;;;;;17.55;3.80;;;28.20;61.50;;;;;;6126156;23;20248;-76
2022/08/18 08:48:30;;;;;;;13.05;3.10;;;28.30;61.20;;;;;;6105730;23;20400;-66
2022/08/18 08:51:05;;;;;;;12.35;3.50;;;28.40;61.30;;;;;;6126602;23;20013;-67
2022/08/18 08:53:37;;;;;;;13.88;3.20;;;28.50;61.50;;;;;;6125964;23;20010;-66
2022/08/18 08:56:13;;;;;;;14.40;3.55;;;28.50;61.60;;;;;;6126104;23;20382;-78
2022/08/18 08:58:44;;;;;;;15.38;3.75;;;28.70;61.80;;;;;;6125761;23;20013;-66
2022/08/18 09:01:25;;;;;;;15.68;3.30;;;28.70;60.90;;;;;;6125761;23;20006;-68
2022/08/18 09:04:13;;;;;;;13.75;3.42;;;28.80;60.20;;;;;;6126319;23;20331;-66
2022/08/18 09:06:55;;;;;;;16.52;3.53;;;28.90;59.50;;;;;;6125848;23;20002;-66
2022/08/18 09:09:43;;;;;;;;;;;29.00;59.00;;;;;;6127010;23;20053;-66
2022/08/18 09:12:10;;;;;;;8.88;3.60;;;29.00;58.70;;;;;;6126528;23;19904;-66
2022/08/18 09:15:14;;;;;;;10.70;3.20;;;29.00;59.00;;;;;;6126528;23;20045;-66
2022/08/18 09:17:54;;;;;;;10.77;3.13;;;29.10;58.90;;;;;;6123293;23;20009;-65
2022/08/18 09:20:51;;;;;;;14.32;3.40;;;29.10;57.70;;;;;;6124380;23;20013;-77
2022/08/18 09:23:29;;;;;;;11.68;3.63;;;29.20;56.90;;;;;;6124581;23;20053;-65
2022/08/18 09:25:59;;;;;;;8.50;3.15;;;29.30;55.90;;;;;;6124762;23;20507;-72
2022/08/18 09:28:28;;;;;;;6.93;2.60;;;29.40;55.20;;;;;;6125777;23;20066;-75
2022/08/18 09:30:54;;;;;;;10.38;3.22;;;29.40;54.70;;;;;;6125742;23;20012;-64
2022/08/18 09:33:19;;;;;;;9.73;3.30;;;29.50;54.50;;;;;;6125796;23;20058;-66
2022/08/18 09:36:07;;;;;;;16.48;3.63;;;29.60;53.90;;;;;;6125155;23;20006;-70
2022/08/18 09:41:30;;;;;;;8.88;3.33;;;29.70;52.40;;;;;;6125914;23;20045;-66
2022/08/18 09:44:14;;;;;;;11.18;2.60;;;29.80;51.90;;;;;;6125701;23;20006;-66
2022/08/18 09:46:42;;;;;;;13.55;3.42;;;29.90;51.90;;;;;;6125352;23;20351;-66
2022/08/18 09:49:26;;;;;;;11.77;3.65;;;30.00;52.20;;;;;;6125467;23;20006;-65
2022/08/18 09:51:54;;;;;;;12.70;3.45;;;30.10;55.30;;;;;;6125816;23;20013;-65
2022/08/18 09:54:26;;;;;;;7.10;3.22;;;30.20;55.60;;;;;;6125508;23;20414;-65
2022/08/18 09:56:52;;;;;;;;;;;30.30;55.80;;;;;;6126114;23;20010;-65
2022/08/18 09:59:44;;;;;;;14.57;4.10;;;30.30;56.10;;;;;;6125841;23;19905;-66
2022/08/18 10:02:36;;;;;;;;;;;30.40;56.00;;;;;;6120918;23;20069;-64
2022/08/18 10:05:14;;;;;;;15.05;3.55;;;30.40;56.10;;;;;;6084785;23;19900;-65
2022/08/18 10:07:47;;;;;;;13.73;4.03;;;30.40;56.30;;;;;;6127594;23;20441;-66
2022/08/18 10:10:25;;;;;;;14.55;4.03;;;30.50;56.50;;;;;;6127538;23;20073;-65
2022/08/18 10:12:55;;;;;;;13.32;3.80;;;30.50;56.40;;;;;;6127698;23;20430;-67
2022/08/18 10:15:40;;;;;;;17.70;3.47;;;30.60;56.70;;;;;;6127880;23;20342;-65
2022/08/18 10:18:21;;;;;;;24.35;4.35;;;30.60;56.30;;;;;;6127827;23;20426;-66
2022/08/18 10:21:02;;;;;;;10.93;3.55;;;30.60;55.60;;;;;;6127571;23;20040;-77
2022/08/18 10:23:48;;;;;;;9.90;3.50;;;30.60;55.10;;;;;;6127263;23;20006;-67
2022/08/18 10:26:36;;;;;;;10.68;3.00;;;30.60;55.10;;;;;;6127076;23;20433;-75
2022/08/18 10:29:06;;;;;;;15.60;3.10;;;30.60;55.00;;;;;;6127417;23;20069;-74
2022/08/18 10:31:55;;;;;;;13.70;3.03;;;30.60;54.70;;;;;;6127509;23;20029;-75
2022/08/18 10:34:37;;;;;;;15.18;3.80;;;30.60;54.10;;;;;;6126861;23;20018;-66
2022/08/18 10:37:14;;;;;;;12.18;4.10;;;30.50;53.90;;;;;;6127485;23;20006;-76
2022/08/18 10:39:41;;;;;;;11.73;3.72;;;30.50;54.60;;;;;;6127373;23;20005;-71
2022/08/18 10:42:13;;;;;;;13.10;4.15;;;30.50;53.60;;;;;;6127392;23;20429;-66
2022/08/18 10:44:47;;;;;;;11.23;3.33;;;30.60;53.20;;;;;;6127903;23;20464;-66
2022/08/18 10:47:26;;;;;;;11.10;3.08;;;30.60;53.00;;;;;;6127395;23;20464;-67
2022/08/18 10:49:52;;;;;;;17.98;3.88;;;30.60;52.80;;;;;;6127389;23;20056;-67
2022/08/18 10:52:23;;;;;;;14.80;3.72;;;30.70;52.80;;;;;;6127437;23;20002;-66
2022/08/18 10:55:23;;;;;;;13.45;3.58;;;30.70;52.10;;;;;;6126987;23;20492;-66
2022/08/18 10:58:24;;;;;;;12.27;2.90;;;30.70;52.00;;;;;;6127244;23;20129;-74
2022/08/18 11:01:14;;;;;;;18.17;3.22;;;30.80;51.40;;;;;;6127033;23;20438;-78
2022/08/18 11:04:07;;;;;;;12.35;3.75;;;30.80;51.20;;;;;;6126984;23;20010;-66
2022/08/18 11:06:40;;;;;;;12.27;3.35;;;30.80;51.20;;;;;;6126766;23;19998;-65
2022/08/18 11:09:09;;;;;;;14.40;3.15;;;30.80;51.60;;;;;;6126758;23;20006;-76
2022/08/18 11:11:42;;;;;;;20.65;3.20;;;30.80;51.70;;;;;;6126729;23;20072;-73
2022/08/18 11:14:14;;;;;;;19.13;3.90;;;30.80;51.10;;;;;;6126956;23;20385;-66
2022/08/18 11:17:02;;;;;;;18.90;3.08;;;30.80;49.60;;;;;;6126765;23;20140;-66
2022/08/18 11:19:34;;;;;;;14.98;3.33;;;30.80;49.50;;;;;;6127120;23;20013;-75
2022/08/18 11:22:01;;;;;;;20.73;4.45;;;30.70;48.90;;;;;;6127224;23;20065;-67
2022/08/18 11:24:31;;;;;;;18.90;3.78;;;30.70;48.00;;;;;;6127195;23;20077;-74
2022/08/18 11:27:04;;;;;;;22.10;3.35;;;30.70;47.60;;;;;;6126697;23;20101;-67
2022/08/18 11:29:39;;;;;;;19.38;3.67;;;30.70;48.30;;;;;;6126896;23;20010;-67
2022/08/18 11:32:27;;;;;;;15.82;3.72;;;30.60;49.20;;;;;;6127222;23;20009;-75
2022/08/18 11:35:05;;;;;;;22.40;4.03;;;30.60;50.90;;;;;;6109331;23;20018;-66
2022/08/18 11:37:40;;;;;;;15.88;3.30;;;30.50;51.00;;;;;;6127129;23;20147;-67
2022/08/18 11:40:34;;;;;;;16.52;4.07;;;30.40;51.40;;;;;;6127348;23;20126;-66
2022/08/18 11:43:08;;;;;;;22.67;4.45;;;30.30;51.70;;;;;;6126542;23;20085;-67
2022/08/18 11:45:45;;;;;;;16.27;2.92;;;30.30;51.20;;;;;;6127203;23;20400;-75
2022/08/18 11:48:14;;;;;;;29.38;4.00;;;30.30;50.70;;;;;;6127239;23;19998;-67
2022/08/18 11:50:55;;;;;;;16.63;3.15;;;30.20;52.70;;;;;;6126730;23;20017;-67
2022/08/18 11:53:25;;;;;;;29.45;4.90;;;30.10;53.60;;;;;;6127083;23;20096;-67
2022/08/18 11:56:23;;;;;;;38.93;4.90;;;30.00;54.10;;;;;;6127163;23;20010;-79
2022/08/18 11:58:51;;;;;;;26.58;4.80;;;29.90;60.00;;;;;;6126121;23;20018;-66
2022/08/18 12:01:48;;;;;;;19.33;3.42;;;29.20;63.30;;;;;;6127097;23;20017;-65
2022/08/18 12:04:14;;;;;;;18.10;3.88;;;28.20;67.10;;;;;;6126445;23;20064;-66
2022/08/18 12:06:52;;;;;;;20.75;3.63;;;27.40;69.40;;;;;;6126605;23;20072;-64
2022/08/18 12:09:38;;;;;;;13.48;2.58;;;26.90;70.70;;;;;;6126512;23;20329;-65
2022/08/18 12:12:24;;;;;;;11.27;2.38;;;26.50;71.00;;;;;;6126674;23;20013;-66
2022/08/18 12:15:12;;;;;;;14.90;2.78;;;26.10;72.20;;;;;;6126156;23;20072;-65
2022/08/18 12:17:39;;;;;;;12.40;2.70;;;25.80;73.40;;;;;;6126609;23;20436;-77
2022/08/18 12:20:07;;;;;;;11.18;2.58;;;25.50;73.90;;;;;;6126599;23;20033;-65
2022/08/18 12:22:34;;;;;;;17.77;3.85;;;25.40;74.40;;;;;;6126854;23;20092;-66
2022/08/18 12:25:02;;;;;;;14.95;3.70;;;25.30;75.10;;;;;;6126289;23;20010;-65
2022/08/18 12:27:30;;;;;;;16.67;3.25;;;25.20;77.00;;;;;;6126185;23;20010;-65
2022/08/18 12:29:57;;;;;;;17.77;4.10;;;25.20;77.10;;;;;;6126630;23;20030;-65
2022/08/18 12:32:25;;;;;;;14.20;3.72;;;25.10;77.70;;;;;;6126423;23;19994;-65
2022/08/18 12:34:51;;;;;;;14.88;2.92;;;25.00;77.90;;;;;;6126633;23;20390;-65
2022/08/18 12:37:20;;;;;;;12.77;2.78;;;24.90;77.60;;;;;;6126217;23;20006;-65
2022/08/18 12:39:47;;;;;;;12.32;2.20;;;24.90;76.90;;;;;;6126249;23;20006;-65
2022/08/18 12:42:13;;;;;;;13.10;2.80;;;24.80;77.50;;;;;;6126187;23;20002;-65
2022/08/18 12:44:40;;;;;;;15.85;2.67;;;24.60;78.70;;;;;;6126380;23;20009;-66
2022/08/18 12:47:18;;;;;;;13.63;3.25;;;24.50;79.60;;;;;;6126506;23;20082;-65
2022/08/18 12:49:44;;;;;;;14.48;2.55;;;24.40;81.20;;;;;;6126640;23;20014;-69
2022/08/18 12:52:10;;;;;;;15.48;2.97;;;24.40;80.60;;;;;;6126268;23;20340;-65
2022/08/18 12:54:36;;;;;;;16.73;2.45;;;24.40;80.50;;;;;;6126428;23;20450;-66
2022/08/18 12:57:07;;;;;;;13.32;2.85;;;24.40;79.10;;;;;;6126524;23;20017;-66
2022/08/18 12:59:34;;;;;;;10.15;2.35;;;24.40;79.80;;;;;;6126326;23;20002;-65
2022/08/18 13:02:00;;;;;;;14.98;3.03;;;24.50;79.90;;;;;;6126480;23;20362;-65
2022/08/18 13:04:26;;;;;;;13.52;2.78;;;24.50;78.30;;;;;;6126372;23;20002;-66
2022/08/18 13:06:55;;;;;;;12.82;2.45;;;24.50;77.20;;;;;;6126288;23;19998;-65
2022/08/18 13:09:21;;;;;;;13.82;2.72;;;24.60;77.50;;;;;;6126008;23;20090;-72
2022/08/18 13:11:47;;;;;;;21.55;3.33;;;24.60;77.10;;;;;;6126224;23;20013;-64
2022/08/18 13:14:14;;;;;;;17.65;3.03;;;24.60;76.90;;;;;;6126414;23;20014;-65
2022/08/18 13:16:41;;;;;;;15.30;2.75;;;24.70;77.20;;;;;;6126101;23;19998;-65
2022/08/18 13:19:08;;;;;;;13.48;2.88;;;24.70;78.00;;;;;;6126231;23;20049;-65
2022/08/18 13:21:34;;;;;;;16.85;2.75;;;24.70;77.60;;;;;;6126115;23;20010;-65
2022/08/18 13:24:00;;;;;;;15.10;2.75;;;24.80;77.20;;;;;;6126263;23;20092;-69
2022/08/18 13:26:30;;;;;;;13.60;2.78;;;24.80;76.60;;;;;;6125950;23;20021;-66